Bates, Idaho
Current Conditions -  °F | °C
As of 5:56 AM on Friday 31 Oct 2014 (Local Time) from KDIJ Reporting Station
Clear Clear  
Wind Chill: 40°   Ceiling: Unl
Heat Index: 40°   Visibility: 10mi
Dew Point: 27°   Wind: 3mph
Humidity: 60%   Direction: 70°ENE
Pressure: 30.09"   Gusts: NA
Location:  43.7205°N, 111.251°W
Report Text: KDIJ 311156Z AUTO 07003KT 10SM CLR 04/M03 A3009 RMK AO2 58013 T00441027 10066 20027 SLP143
Loading
Personal Weather Stations






























Interactive Weather Map
Tropical Storm Tracking
New forecast layout! Learn more

10-Day Weather Forecast

Advertisements
Track Severe Weather on mobile